• Join FlightAware (Why Join?)
  • Login
  • US Flag 
05:42PM EST


 

Airport Tracker/Info


-or-


 

Live Flight TrackerFlight Track Log ✈ TCF3494 ✈ 19-Jul-2013 ✈ KORD - KLGA

Flight Track Log - Related Links

Times and Time Zones

All times are in EDT time to prevent confusion due to time zone crossing. See the TCF3494 flight status page for this flight to view local times or setup timezone preferences in your user account.

Time Position Orientation Groundspeed Altitude Reporting Facility
EDT Latitude Longitude Course Direction KTS MPH feet Rate Location/Type
09:06PM 42.0000 -87.9333 90° East 154 177 1,200  Level Chicago TRACON
09:07PM 42.0333 -87.9333 360° North 207 238 2,900 1,740 Climbing Chicago TRACON
09:08PM 42.0833 -87.8833 37° Northeast 268 308 4,600 1,800 Climbing Chicago TRACON
09:09PM 41.9442 -87.2846 95° East  Level FlightAware Approximate
09:09PM 42.1178 -87.7931 63° Northeast 298 343 6,400  Level Chicago Center
09:10PM 41.9333 -87.1311 90° East  Level FlightAware Approximate
09:10PM 42.0733 -87.6939 121° Southeast 302 348 9,700  Level Chicago Center
09:11PM 41.9333 -86.9768 90° East  Level FlightAware Approximate
09:11PM 42.0219 -87.5717 119° Southeast 325 374 12,700  Level Chicago Center
09:12PM 42.0036 -87.4486 101° East 336 387 14,900 1,980 Climbing Chicago Center
09:13PM 41.9831 -87.3175 102° East 355 409 16,800 1,800 Climbing Chicago Center
09:14PM 41.9633 -87.1858 101° East 381 438 18,700 1,860 Climbing Chicago Center
09:15PM 41.9436 -87.0283 100° East 400 460 20,700 2,040 Climbing Chicago Center
09:16PM 41.9481 -86.8458 88° East 408 470 23,000 1,740 Climbing Chicago Center
09:17PM 41.9500 -86.6892 89° East 419 482 24,400 1,200 Climbing Chicago Center
09:18PM 41.9517 -86.5367 89° East 433 498 25,600 1,200 Climbing Chicago Center
09:19PM 41.9544 -86.3708 89° East 443 510 26,900 1,200 Climbing Chicago Center
09:20PM 41.9542 -86.1986 90° East 458 527 28,100 1,200 Climbing Chicago Center
09:21PM 41.9347 -85.9911 97° East 466 536 29,500 1,080 Climbing Chicago Center
09:22PM 41.9181 -85.8156 97° East 472 543 30,400 840 Climbing Chicago Center
09:23PM 41.9017 -85.6364 97° East 479 551 31,300 960 Climbing Chicago Center
09:24PM 41.8847 -85.4531 97° East 486 559 32,400 1,020 Climbing Chicago Center
09:26PM 41.8667 -85.2722 98° East 481 554 33,500 1,020 Climbing Chicago Center
09:27PM 41.8486 -85.0953 98° East 478 550 34,600 720 Climbing Chicago Center
09:28PM 41.8303 -84.9194 98° East 473 544 35,000 180 Climbing Chicago Center
09:29PM 41.8117 -84.7444 98° East 474 545 35,000  Level Chicago Center
09:29PM 41.7997 -84.6083 97° East 463 533 35,000  Level Cleveland Center
09:30PM 41.7825 -84.4347 98° East 463 533 35,000  Level Cleveland Center
09:31PM 41.7756 -84.2672 93° East 463 533 35,000  Level Cleveland Center
09:32PM 41.7553 -84.1183 100° East 452 520 35,000  Level Cleveland Center
09:33PM 41.7247 -83.9553 104° East 452 520 35,000  Level Cleveland Center
09:34PM 41.6772 -83.7942 111° Southeast 452 520 35,000  Level Cleveland Center
09:35PM 41.6231 -83.6389 115° Southeast 457 526 35,000  Level Cleveland Center
09:36PM 41.5669 -83.4781 115° Southeast 457 526 35,000  Level Cleveland Center
09:37PM 41.5122 -83.3231 115° Southeast 462 532 35,000  Level Cleveland Center
09:38PM 41.4644 -83.1408 109° East 467 537 35,000  Level Cleveland Center
09:39PM 41.4514 -82.9658 96° East 472 543 35,000  Level Cleveland Center
09:40PM 41.4447 -82.7908 93° East 477 549 35,000  Level Cleveland Center
09:41PM 41.4414 -82.6328 92° East 477 549 35,000  Level Cleveland Center
09:42PM 41.4358 -82.4611 92° East 477 549 35,000  Level Cleveland Center
09:43PM 41.4283 -82.2836 93° East 477 549 35,000  Level Cleveland Center
09:44PM 41.4244 -82.1089 92° East 477 549 35,000  Level Cleveland Center
09:45PM 41.4183 -81.9372 93° East 477 549 35,000  Level Cleveland Center
09:46PM 41.4100 -81.7378 93° East 477 549 35,000  Level Cleveland Center
09:47PM 41.4056 -81.5603 92° East 477 549 35,000  Level Cleveland Center
09:48PM 41.3964 -81.3858 94° East 477 549 35,000  Level Cleveland Center
09:49PM 41.3892 -81.2114 93° East 477 549 35,000  Level Cleveland Center
09:50PM 41.3817 -81.0564 94° East 477 549 35,000  Level Cleveland Center
09:51PM 41.3739 -80.8847 93° East 477 549 35,000  Level Cleveland Center
09:52PM 41.3658 -80.7131 94° East 470 541 35,000  Level Cleveland Center
09:53PM 41.3575 -80.5417 94° East 460 529 35,000  Level Cleveland Center
09:54PM 41.3489 -80.3728 94° East 460 529 35,000  Level Cleveland Center
09:55PM 41.3403 -80.1794 93° East 460 529 35,000  Level Cleveland Center
09:56PM 41.3311 -80.0081 94° East 465 535 35,000  Level Cleveland Center
09:57PM 41.3197 -79.8339 95° East 465 535 35,000  Level Cleveland Center
09:58PM 41.3100 -79.6597 94° East 465 535 35,000  Level Cleveland Center
09:59PM 41.3022 -79.4803 93° East 465 535 35,000  Level Cleveland Center
10:00PM 41.2922 -79.3092 94° East 465 535 35,000  Level Cleveland Center
10:01PM 41.2797 -79.1381 95° East 465 535 35,000 -600 Level Cleveland Center
10:03PM 41.2658 -78.9542 96° East  Level FlightAware Approximate
10:03PM 41.2600 -78.7878 96° East 472 543 33,300  Level Cleveland Center
10:04PM 41.2467 -78.6058 96° East 477 549 33,000 -120 Descending Cleveland Center
10:06PM 41.2253 -78.2858 95° East 457 526 33,000  Level New York Center
10:07PM 41.2069 -78.0769 97° East 469 540 33,000  Level New York Center
10:08PM 41.1842 -77.9036 100° East 469 540 33,000  Level New York Center
10:09PM 41.1631 -77.7303 99° East 469 540 33,000  Level New York Center
10:10PM 41.1400 -77.5569 100° East 474 545 33,000  Level New York Center
10:11PM 41.1186 -77.3814 99° East 474 545 33,000 -960 Level New York Center
10:12PM 41.0958 -77.2278 101° East 474 545 31,100 -1,920 Descending New York Center
10:13PM 41.0736 -77.0575 100° East 474 545 29,100 -2,040 Descending New York Center
10:14PM 41.0508 -76.8958 101° East 468 539 27,100 -1,980 Descending New York Center
10:15PM 41.0319 -76.7372 99° East 455 524 25,200 -1,980 Descending New York Center
10:16PM 41.0017 -76.5889 105° East 432 497 23,300 -1,860 Descending New York Center
10:17PM 40.9692 -76.4461 107° East 417 480 21,600 -1,620 Descending New York Center
10:18PM 40.9361 -76.3086 108° East 401 461 20,100 -1,860 Descending New York Center
10:19PM 40.9067 -76.1744 106° East 386 444 18,000 -2,040 Descending New York Center
10:20PM 40.8714 -76.0344 108° East 374 430 16,200 -1,620 Descending New York Center
10:21PM 40.8394 -75.9086 109° East 362 417 14,700 -1,500 Descending New York Center
10:22PM 40.8094 -75.7856 108° East 356 410 13,300 -900 Descending New York Center
10:23PM 40.7789 -75.6656 109° East 351 404 13,000 -180 Descending New York Center
10:24PM 40.7522 -75.5567 108° East 351 404 13,000  Level New York Center
10:25PM 40.7236 -75.4342 107° East 351 404 13,000  Level New York Center
10:26PM 40.6972 -75.3092 106° East 351 404 13,000 -300 Level New York Center
10:27PM 40.6747 -75.1875 104° East 346 398 12,500 -1,020 Descending New York Center
10:28PM 40.6222 -75.0883 125° Southeast 339 390 11,000 -1,260 Descending New York Center
10:29PM 40.5617 -74.9778 126° Southeast 334 384 10,000 -540 Descending New York Center
10:30PM 40.5261 -74.8583 111° Southeast 339 390 10,000  Level New York Center
10:31PM 40.5114 -74.7428 99° East 355 409 10,000  Level New York Center
10:32PM 40.5167 -74.5875 87° East 379 436 10,000  Level New York Center
10:33PM 40.5189 -74.4483 89° East 386 444 10,000  Level New York Center
10:34PM 40.5314 -74.3153 83° East 381 438 10,000 -600 Level New York Center
10:35PM 40.5533 -74.2044 75° East 331 381 8,800 -1,500 Descending New York Center
10:36PM 40.5875 -74.1078 65° Northeast 298 343 7,100 -1,680 Descending New York Center
10:37PM 40.6478 -74.0342 43° Northeast 290 334 5,500 -1,740 Descending New York Center
10:38PM 40.6833 -74.0000 36° Northeast 295 339 4,600 -1,080 Descending New York TRACON
10:39PM 40.7333 -73.9167 52° Northeast 299 344 4,000 -420 Descending New York TRACON
10:40PM 40.7667 -73.8333 62° Northeast 299 344 3,900 -540 Descending New York TRACON
10:41PM 40.8000 -73.7500 62° Northeast 292 336 3,000 -480 Descending New York TRACON
10:42PM 40.8667 -73.7000 30° Northeast 243 280 3,000 -240 Level New York TRACON
10:43PM 40.9000 -73.7500 311° West 193 222 2,600 -420 Descending New York TRACON